sensor_id;sensor_type;location;lat;lon;timestamp;P1;durP1;ratioP1;P2;durP2;ratioP2
84084;SDS011;74175;41.730;44.734;2024-02-26T00:00:51;10.25;;;4.18;;
84084;SDS011;74175;41.730;44.734;2024-02-26T00:03:17;8.03;;;3.47;;
84084;SDS011;74175;41.730;44.734;2024-02-26T00:05:43;7.30;;;2.85;;
84084;SDS011;74175;41.730;44.734;2024-02-26T00:08:09;9.95;;;4.28;;
84084;SDS011;74175;41.730;44.734;2024-02-26T00:10:35;7.25;;;3.33;;
84084;SDS011;74175;41.730;44.734;2024-02-26T00:15:29;8.85;;;3.88;;
84084;SDS011;74175;41.730;44.734;2024-02-26T00:17:55;10.13;;;4.00;;
84084;SDS011;74175;41.730;44.734;2024-02-26T00:20:21;10.00;;;4.03;;
84084;SDS011;74175;41.730;44.734;2024-02-26T00:22:47;11.02;;;4.18;;
84084;SDS011;74175;41.730;44.734;2024-02-26T00:25:14;8.55;;;3.58;;
84084;SDS011;74175;41.730;44.734;2024-02-26T00:27:40;9.20;;;3.80;;
84084;SDS011;74175;41.730;44.734;2024-02-26T00:30:07;9.02;;;4.55;;
84084;SDS011;74175;41.730;44.734;2024-02-26T00:32:33;9.33;;;3.40;;
84084;SDS011;74175;41.730;44.734;2024-02-26T00:34:59;11.02;;;4.40;;
84084;SDS011;74175;41.730;44.734;2024-02-26T00:37:26;8.73;;;4.10;;
84084;SDS011;74175;41.730;44.734;2024-02-26T00:39:52;10.45;;;4.00;;
84084;SDS011;74175;41.730;44.734;2024-02-26T00:42:19;9.40;;;4.25;;
84084;SDS011;74175;41.730;44.734;2024-02-26T00:44:47;7.80;;;3.58;;
84084;SDS011;74175;41.730;44.734;2024-02-26T00:47:13;8.27;;;3.63;;
84084;SDS011;74175;41.730;44.734;2024-02-26T00:49:39;9.15;;;4.13;;
84084;SDS011;74175;41.730;44.734;2024-02-26T00:52:05;9.30;;;4.35;;
84084;SDS011;74175;41.730;44.734;2024-02-26T00:54:32;8.48;;;3.70;;
84084;SDS011;74175;41.730;44.734;2024-02-26T00:56:58;8.70;;;3.92;;
84084;SDS011;74175;41.730;44.734;2024-02-26T00:59:24;8.93;;;4.33;;
84084;SDS011;74175;41.730;44.734;2024-02-26T01:01:50;8.68;;;3.50;;
84084;SDS011;74175;41.730;44.734;2024-02-26T01:04:16;9.98;;;4.13;;
84084;SDS011;74175;41.730;44.734;2024-02-26T01:06:42;8.20;;;3.45;;
84084;SDS011;74175;41.730;44.734;2024-02-26T01:09:08;13.32;;;4.68;;
84084;SDS011;74175;41.730;44.734;2024-02-26T01:11:35;10.33;;;4.40;;
84084;SDS011;74175;41.730;44.734;2024-02-26T01:14:01;9.02;;;3.60;;
84084;SDS011;74175;41.730;44.734;2024-02-26T01:16:27;9.40;;;4.00;;
84084;SDS011;74175;41.730;44.734;2024-02-26T01:18:55;9.63;;;4.40;;
84084;SDS011;74175;41.730;44.734;2024-02-26T01:21:21;7.43;;;3.38;;
84084;SDS011;74175;41.730;44.734;2024-02-26T01:23:47;9.00;;;4.03;;
84084;SDS011;74175;41.730;44.734;2024-02-26T01:26:13;11.67;;;4.40;;
84084;SDS011;74175;41.730;44.734;2024-02-26T01:28:39;11.38;;;4.75;;
84084;SDS011;74175;41.730;44.734;2024-02-26T01:31:05;7.18;;;3.22;;
84084;SDS011;74175;41.730;44.734;2024-02-26T01:33:34;10.13;;;4.50;;
84084;SDS011;74175;41.730;44.734;2024-02-26T01:36:00;7.47;;;3.40;;
84084;SDS011;74175;41.730;44.734;2024-02-26T01:38:26;10.83;;;4.00;;
84084;SDS011;74175;41.730;44.734;2024-02-26T01:40:53;10.38;;;4.22;;
84084;SDS011;74175;41.730;44.734;2024-02-26T01:43:19;8.80;;;3.67;;
84084;SDS011;74175;41.730;44.734;2024-02-26T01:45:45;7.60;;;3.03;;
84084;SDS011;74175;41.730;44.734;2024-02-26T01:48:11;9.57;;;4.03;;
84084;SDS011;74175;41.730;44.734;2024-02-26T01:50:38;10.97;;;4.00;;
84084;SDS011;74175;41.730;44.734;2024-02-26T01:53:04;10.80;;;4.70;;
84084;SDS011;74175;41.730;44.734;2024-02-26T01:55:30;11.88;;;5.05;;
84084;SDS011;74175;41.730;44.734;2024-02-26T01:57:56;10.98;;;4.40;;
84084;SDS011;74175;41.730;44.734;2024-02-26T02:00:23;11.77;;;5.35;;
84084;SDS011;74175;41.730;44.734;2024-02-26T02:02:49;8.97;;;3.70;;
84084;SDS011;74175;41.730;44.734;2024-02-26T02:05:16;11.88;;;4.78;;
84084;SDS011;74175;41.730;44.734;2024-02-26T02:07:43;9.25;;;3.85;;
84084;SDS011;74175;41.730;44.734;2024-02-26T02:10:09;11.32;;;4.18;;
84084;SDS011;74175;41.730;44.734;2024-02-26T02:12:36;11.20;;;4.28;;
84084;SDS011;74175;41.730;44.734;2024-02-26T02:15:04;9.90;;;4.13;;
84084;SDS011;74175;41.730;44.734;2024-02-26T02:17:30;9.75;;;3.80;;
84084;SDS011;74175;41.730;44.734;2024-02-26T02:19:57;11.98;;;5.20;;
84084;SDS011;74175;41.730;44.734;2024-02-26T02:22:23;9.68;;;4.30;;
84084;SDS011;74175;41.730;44.734;2024-02-26T02:24:49;9.45;;;3.72;;
84084;SDS011;74175;41.730;44.734;2024-02-26T02:27:17;9.35;;;4.35;;
84084;SDS011;74175;41.730;44.734;2024-02-26T02:29:43;8.95;;;4.13;;
84084;SDS011;74175;41.730;44.734;2024-02-26T02:32:09;9.48;;;4.43;;
84084;SDS011;74175;41.730;44.734;2024-02-26T02:34:35;8.80;;;3.72;;
84084;SDS011;74175;41.730;44.734;2024-02-26T02:37:02;10.05;;;4.20;;
84084;SDS011;74175;41.730;44.734;2024-02-26T02:39:28;9.75;;;4.47;;
84084;SDS011;74175;41.730;44.734;2024-02-26T02:41:54;11.20;;;4.40;;
84084;SDS011;74175;41.730;44.734;2024-02-26T02:44:20;8.48;;;4.00;;
84084;SDS011;74175;41.730;44.734;2024-02-26T02:46:46;7.87;;;3.43;;
84084;SDS011;74175;41.730;44.734;2024-02-26T02:49:12;7.95;;;3.45;;
84084;SDS011;74175;41.730;44.734;2024-02-26T02:51:40;10.10;;;4.00;;
84084;SDS011;74175;41.730;44.734;2024-02-26T02:54:05;9.02;;;4.85;;
84084;SDS011;74175;41.730;44.734;2024-02-26T02:56:32;8.10;;;3.33;;
84084;SDS011;74175;41.730;44.734;2024-02-26T02:58:58;8.90;;;3.92;;
84084;SDS011;74175;41.730;44.734;2024-02-26T03:01:24;9.70;;;4.28;;
84084;SDS011;74175;41.730;44.734;2024-02-26T03:03:50;8.40;;;3.92;;
84084;SDS011;74175;41.730;44.734;2024-02-26T03:06:16;8.35;;;3.60;;
84084;SDS011;74175;41.730;44.734;2024-02-26T03:08:43;8.63;;;3.72;;
84084;SDS011;74175;41.730;44.734;2024-02-26T03:11:14;10.82;;;4.10;;
84084;SDS011;74175;41.730;44.734;2024-02-26T03:13:43;10.95;;;4.32;;
84084;SDS011;74175;41.730;44.734;2024-02-26T03:16:09;9.48;;;3.75;;
84084;SDS011;74175;41.730;44.734;2024-02-26T03:18:35;7.47;;;3.65;;
84084;SDS011;74175;41.730;44.734;2024-02-26T03:21:01;10.75;;;5.05;;
84084;SDS011;74175;41.730;44.734;2024-02-26T03:23:28;11.43;;;4.70;;
84084;SDS011;74175;41.730;44.734;2024-02-26T03:25:55;9.38;;;3.80;;
84084;SDS011;74175;41.730;44.734;2024-02-26T03:28:21;9.20;;;4.10;;
84084;SDS011;74175;41.730;44.734;2024-02-26T03:30:50;9.57;;;4.20;;
84084;SDS011;74175;41.730;44.734;2024-02-26T03:33:17;10.10;;;4.70;;
84084;SDS011;74175;41.730;44.734;2024-02-26T03:35:44;12.27;;;4.50;;
84084;SDS011;74175;41.730;44.734;2024-02-26T03:38:10;8.52;;;3.40;;
84084;SDS011;74175;41.730;44.734;2024-02-26T03:40:36;9.90;;;4.57;;
84084;SDS011;74175;41.730;44.734;2024-02-26T03:43:02;11.75;;;5.35;;
84084;SDS011;74175;41.730;44.734;2024-02-26T03:45:30;9.20;;;3.65;;
84084;SDS011;74175;41.730;44.734;2024-02-26T03:47:56;9.00;;;3.70;;
84084;SDS011;74175;41.730;44.734;2024-02-26T03:50:22;10.23;;;4.20;;
84084;SDS011;74175;41.730;44.734;2024-02-26T03:52:48;14.68;;;4.57;;
84084;SDS011;74175;41.730;44.734;2024-02-26T03:55:14;10.68;;;4.40;;
84084;SDS011;74175;41.730;44.734;2024-02-26T03:57:40;8.57;;;3.90;;
84084;SDS011;74175;41.730;44.734;2024-02-26T04:00:07;10.38;;;4.40;;
84084;SDS011;74175;41.730;44.734;2024-02-26T04:02:42;9.40;;;4.10;;
84084;SDS011;74175;41.730;44.734;2024-02-26T04:05:13;7.88;;;3.50;;
84084;SDS011;74175;41.730;44.734;2024-02-26T04:07:40;9.45;;;4.97;;
84084;SDS011;74175;41.730;44.734;2024-02-26T04:10:10;8.20;;;3.03;;
84084;SDS011;74175;41.730;44.734;2024-02-26T04:12:40;11.57;;;4.90;;
84084;SDS011;74175;41.730;44.734;2024-02-26T04:15:07;7.90;;;3.50;;
84084;SDS011;74175;41.730;44.734;2024-02-26T04:17:35;9.77;;;4.50;;
84084;SDS011;74175;41.730;44.734;2024-02-26T04:20:02;9.77;;;4.47;;
84084;SDS011;74175;41.730;44.734;2024-02-26T04:22:29;10.23;;;4.80;;
84084;SDS011;74175;41.730;44.734;2024-02-26T04:24:55;8.35;;;3.45;;
84084;SDS011;74175;41.730;44.734;2024-02-26T04:27:21;14.57;;;4.40;;
84084;SDS011;74175;41.730;44.734;2024-02-26T04:29:47;9.57;;;3.83;;
84084;SDS011;74175;41.730;44.734;2024-02-26T04:32:13;11.75;;;5.20;;
84084;SDS011;74175;41.730;44.734;2024-02-26T04:34:40;11.05;;;5.07;;
84084;SDS011;74175;41.730;44.734;2024-02-26T04:37:07;9.68;;;4.18;;
84084;SDS011;74175;41.730;44.734;2024-02-26T04:39:33;9.98;;;4.72;;
84084;SDS011;74175;41.730;44.734;2024-02-26T04:41:59;8.98;;;4.30;;
84084;SDS011;74175;41.730;44.734;2024-02-26T04:44:29;9.17;;;3.43;;
84084;SDS011;74175;41.730;44.734;2024-02-26T04:46:56;9.93;;;4.37;;
84084;SDS011;74175;41.730;44.734;2024-02-26T04:49:22;10.23;;;4.40;;
84084;SDS011;74175;41.730;44.734;2024-02-26T04:51:48;10.90;;;5.28;;
84084;SDS011;74175;41.730;44.734;2024-02-26T04:54:14;9.15;;;4.38;;
84084;SDS011;74175;41.730;44.734;2024-02-26T04:56:41;11.05;;;4.30;;
84084;SDS011;74175;41.730;44.734;2024-02-26T04:59:07;11.95;;;5.28;;
84084;SDS011;74175;41.730;44.734;2024-02-26T05:01:33;9.88;;;4.00;;
84084;SDS011;74175;41.730;44.734;2024-02-26T05:04:02;9.23;;;4.10;;
84084;SDS011;74175;41.730;44.734;2024-02-26T05:06:33;8.60;;;3.25;;
84084;SDS011;74175;41.730;44.734;2024-02-26T05:08:59;8.75;;;3.88;;
84084;SDS011;74175;41.730;44.734;2024-02-26T05:11:27;10.55;;;4.18;;
84084;SDS011;74175;41.730;44.734;2024-02-26T05:13:53;9.18;;;3.80;;
84084;SDS011;74175;41.730;44.734;2024-02-26T05:16:20;8.43;;;3.30;;
84084;SDS011;74175;41.730;44.734;2024-02-26T05:18:57;14.73;;;5.40;;
84084;SDS011;74175;41.730;44.734;2024-02-26T05:21:29;9.65;;;3.72;;
84084;SDS011;74175;41.730;44.734;2024-02-26T05:24:06;10.00;;;4.30;;
84084;SDS011;74175;41.730;44.734;2024-02-26T05:26:37;8.70;;;3.80;;
84084;SDS011;74175;41.730;44.734;2024-02-26T05:29:11;12.27;;;4.82;;
84084;SDS011;74175;41.730;44.734;2024-02-26T05:31:37;8.82;;;3.90;;
84084;SDS011;74175;41.730;44.734;2024-02-26T05:34:04;12.93;;;4.80;;
84084;SDS011;74175;41.730;44.734;2024-02-26T05:36:30;8.98;;;3.78;;
84084;SDS011;74175;41.730;44.734;2024-02-26T05:39:01;8.48;;;3.85;;
84084;SDS011;74175;41.730;44.734;2024-02-26T05:41:29;6.93;;;3.17;;
84084;SDS011;74175;41.730;44.734;2024-02-26T05:43:55;9.82;;;4.47;;
84084;SDS011;74175;41.730;44.734;2024-02-26T05:46:21;9.48;;;3.85;;
84084;SDS011;74175;41.730;44.734;2024-02-26T05:48:49;10.33;;;3.80;;
84084;SDS011;74175;41.730;44.734;2024-02-26T05:51:16;11.83;;;4.87;;
84084;SDS011;74175;41.730;44.734;2024-02-26T05:53:42;8.25;;;3.33;;
84084;SDS011;74175;41.730;44.734;2024-02-26T05:56:08;11.63;;;4.50;;
84084;SDS011;74175;41.730;44.734;2024-02-26T05:58:35;6.40;;;2.90;;
84084;SDS011;74175;41.730;44.734;2024-02-26T06:01:01;8.43;;;3.80;;
84084;SDS011;74175;41.730;44.734;2024-02-26T06:03:27;9.30;;;3.83;;
84084;SDS011;74175;41.730;44.734;2024-02-26T06:05:54;9.40;;;3.97;;
84084;SDS011;74175;41.730;44.734;2024-02-26T06:08:20;9.90;;;3.75;;
84084;SDS011;74175;41.730;44.734;2024-02-26T06:10:46;10.00;;;3.90;;
84084;SDS011;74175;41.730;44.734;2024-02-26T06:13:12;7.57;;;3.45;;
84084;SDS011;74175;41.730;44.734;2024-02-26T06:15:38;10.10;;;4.85;;
84084;SDS011;74175;41.730;44.734;2024-02-26T06:18:04;7.18;;;3.50;;
84084;SDS011;74175;41.730;44.734;2024-02-26T06:20:30;8.03;;;3.17;;
84084;SDS011;74175;41.730;44.734;2024-02-26T06:22:56;7.38;;;3.30;;
84084;SDS011;74175;41.730;44.734;2024-02-26T06:25:23;11.95;;;4.88;;
84084;SDS011;74175;41.730;44.734;2024-02-26T06:27:49;10.60;;;4.95;;
84084;SDS011;74175;41.730;44.734;2024-02-26T06:30:16;9.27;;;4.28;;
84084;SDS011;74175;41.730;44.734;2024-02-26T06:32:42;9.05;;;3.70;;
84084;SDS011;74175;41.730;44.734;2024-02-26T06:35:08;9.63;;;3.78;;
84084;SDS011;74175;41.730;44.734;2024-02-26T06:37:37;11.73;;;4.23;;
84084;SDS011;74175;41.730;44.734;2024-02-26T06:40:03;11.50;;;4.35;;
84084;SDS011;74175;41.730;44.734;2024-02-26T06:42:32;8.67;;;3.53;;
84084;SDS011;74175;41.730;44.734;2024-02-26T06:44:58;9.93;;;3.78;;
84084;SDS011;74175;41.730;44.734;2024-02-26T06:47:24;9.70;;;4.00;;
84084;SDS011;74175;41.730;44.734;2024-02-26T06:49:51;11.40;;;3.87;;
84084;SDS011;74175;41.730;44.734;2024-02-26T07:27:39;8.30;;;3.50;;
84084;SDS011;74175;41.730;44.734;2024-02-26T07:30:06;8.52;;;3.60;;
84084;SDS011;74175;41.730;44.734;2024-02-26T07:32:34;9.90;;;3.53;;
84084;SDS011;74175;41.730;44.734;2024-02-26T07:35:00;9.10;;;3.92;;
84084;SDS011;74175;41.730;44.734;2024-02-26T07:37:26;10.00;;;3.88;;
84084;SDS011;74175;41.730;44.734;2024-02-26T07:39:52;10.27;;;3.87;;
84084;SDS011;74175;41.730;44.734;2024-02-26T07:42:20;9.00;;;3.45;;
84084;SDS011;74175;41.730;44.734;2024-02-26T07:44:53;7.15;;;3.10;;
84084;SDS011;74175;41.730;44.734;2024-02-26T07:47:19;9.73;;;4.10;;
84084;SDS011;74175;41.730;44.734;2024-02-26T07:49:46;8.15;;;3.67;;
84084;SDS011;74175;41.730;44.734;2024-02-26T07:52:12;9.02;;;4.13;;
84084;SDS011;74175;41.730;44.734;2024-02-26T07:54:38;9.17;;;3.77;;
84084;SDS011;74175;41.730;44.734;2024-02-26T07:57:04;6.03;;;2.40;;
84084;SDS011;74175;41.730;44.734;2024-02-26T07:59:31;8.40;;;3.28;;
84084;SDS011;74175;41.730;44.734;2024-02-26T08:01:57;8.85;;;3.50;;
84084;SDS011;74175;41.730;44.734;2024-02-26T08:04:24;8.13;;;3.80;;
84084;SDS011;74175;41.730;44.734;2024-02-26T08:06:52;7.05;;;3.03;;
84084;SDS011;74175;41.730;44.734;2024-02-26T08:09:22;8.38;;;3.25;;
84084;SDS011;74175;41.730;44.734;2024-02-26T08:11:49;7.88;;;3.38;;
84084;SDS011;74175;41.730;44.734;2024-02-26T08:14:15;9.90;;;4.00;;
84084;SDS011;74175;41.730;44.734;2024-02-26T08:16:41;7.37;;;2.97;;
84084;SDS011;74175;41.730;44.734;2024-02-26T08:19:07;9.75;;;3.58;;
84084;SDS011;74175;41.730;44.734;2024-02-26T08:21:35;10.40;;;3.67;;
84084;SDS011;74175;41.730;44.734;2024-02-26T08:24:02;6.53;;;2.70;;
84084;SDS011;74175;41.730;44.734;2024-02-26T08:26:28;7.43;;;3.17;;
84084;SDS011;74175;41.730;44.734;2024-02-26T08:28:54;7.80;;;2.80;;
84084;SDS011;74175;41.730;44.734;2024-02-26T08:31:21;8.02;;;3.45;;
84084;SDS011;74175;41.730;44.734;2024-02-26T08:33:49;6.55;;;2.33;;
84084;SDS011;74175;41.730;44.734;2024-02-26T08:36:15;7.13;;;2.95;;
84084;SDS011;74175;41.730;44.734;2024-02-26T08:38:43;9.05;;;2.97;;
84084;SDS011;74175;41.730;44.734;2024-02-26T08:41:09;6.05;;;2.35;;
84084;SDS011;74175;41.730;44.734;2024-02-26T08:43:36;7.35;;;2.90;;
84084;SDS011;74175;41.730;44.734;2024-02-26T08:46:02;7.70;;;2.63;;
84084;SDS011;74175;41.730;44.734;2024-02-26T08:48:28;7.80;;;2.80;;
84084;SDS011;74175;41.730;44.734;2024-02-26T08:50:54;7.30;;;2.72;;
84084;SDS011;74175;41.730;44.734;2024-02-26T08:53:20;9.27;;;2.67;;
84084;SDS011;74175;41.730;44.734;2024-02-26T08:55:47;4.95;;;1.90;;
84084;SDS011;74175;41.730;44.734;2024-02-26T08:58:13;6.65;;;2.45;;
84084;SDS011;74175;41.730;44.734;2024-02-26T09:00:39;5.93;;;2.00;;
84084;SDS011;74175;41.730;44.734;2024-02-26T09:03:05;7.55;;;2.63;;
84084;SDS011;74175;41.730;44.734;2024-02-26T09:05:31;8.20;;;3.28;;
84084;SDS011;74175;41.730;44.734;2024-02-26T09:07:58;7.03;;;2.60;;
84084;SDS011;74175;41.730;44.734;2024-02-26T09:10:24;9.10;;;3.27;;
84084;SDS011;74175;41.730;44.734;2024-02-26T09:12:52;7.78;;;2.65;;
84084;SDS011;74175;41.730;44.734;2024-02-26T09:15:20;7.53;;;2.30;;
84084;SDS011;74175;41.730;44.734;2024-02-26T09:17:46;7.32;;;2.55;;
84084;SDS011;74175;41.730;44.734;2024-02-26T09:20:18;7.22;;;2.80;;
84084;SDS011;74175;41.730;44.734;2024-02-26T09:22:48;8.40;;;3.10;;
84084;SDS011;74175;41.730;44.734;2024-02-26T09:25:14;6.63;;;2.33;;
84084;SDS011;74175;41.730;44.734;2024-02-26T09:27:46;7.33;;;2.57;;
84084;SDS011;74175;41.730;44.734;2024-02-26T09:30:13;8.37;;;3.77;;
84084;SDS011;74175;41.730;44.734;2024-02-26T09:32:39;8.30;;;3.28;;
84084;SDS011;74175;41.730;44.734;2024-02-26T09:35:06;7.18;;;3.25;;
84084;SDS011;74175;41.730;44.734;2024-02-26T09:37:33;15.82;;;2.88;;
84084;SDS011;74175;41.730;44.734;2024-02-26T09:40:00;8.68;;;3.55;;
84084;SDS011;74175;41.730;44.734;2024-02-26T09:42:26;8.18;;;3.50;;
84084;SDS011;74175;41.730;44.734;2024-02-26T09:44:56;7.37;;;3.00;;
84084;SDS011;74175;41.730;44.734;2024-02-26T09:47:28;7.47;;;3.38;;
84084;SDS011;74175;41.730;44.734;2024-02-26T09:49:56;8.05;;;3.20;;
84084;SDS011;74175;41.730;44.734;2024-02-26T09:52:23;9.40;;;3.60;;
84084;SDS011;74175;41.730;44.734;2024-02-26T09:54:49;8.45;;;2.50;;
84084;SDS011;74175;41.730;44.734;2024-02-26T09:57:15;6.80;;;2.72;;
84084;SDS011;74175;41.730;44.734;2024-02-26T09:59:43;6.93;;;2.88;;
84084;SDS011;74175;41.730;44.734;2024-02-26T10:02:11;6.13;;;2.53;;
84084;SDS011;74175;41.730;44.734;2024-02-26T10:04:42;7.40;;;2.83;;
84084;SDS011;74175;41.730;44.734;2024-02-26T10:07:10;14.13;;;6.25;;
84084;SDS011;74175;41.730;44.734;2024-02-26T10:09:37;10.20;;;4.50;;
84084;SDS011;74175;41.730;44.734;2024-02-26T10:12:04;6.95;;;2.60;;
84084;SDS011;74175;41.730;44.734;2024-02-26T10:14:31;7.93;;;3.50;;
84084;SDS011;74175;41.730;44.734;2024-02-26T10:16:57;7.25;;;3.13;;
84084;SDS011;74175;41.730;44.734;2024-02-26T10:19:27;8.30;;;3.28;;
84084;SDS011;74175;41.730;44.734;2024-02-26T10:21:58;8.65;;;3.83;;
84084;SDS011;74175;41.730;44.734;2024-02-26T10:24:29;9.13;;;3.63;;
84084;SDS011;74175;41.730;44.734;2024-02-26T10:26:55;9.68;;;3.42;;
84084;SDS011;74175;41.730;44.734;2024-02-26T10:29:23;9.60;;;3.70;;
84084;SDS011;74175;41.730;44.734;2024-02-26T10:31:50;9.88;;;3.80;;
84084;SDS011;74175;41.730;44.734;2024-02-26T10:34:17;7.78;;;3.10;;
84084;SDS011;74175;41.730;44.734;2024-02-26T10:36:44;7.80;;;2.93;;
84084;SDS011;74175;41.730;44.734;2024-02-26T10:39:13;8.60;;;2.83;;
84084;SDS011;74175;41.730;44.734;2024-02-26T10:41:40;6.40;;;2.30;;
84084;SDS011;74175;41.730;44.734;2024-02-26T10:44:11;8.30;;;4.25;;
84084;SDS011;74175;41.730;44.734;2024-02-26T10:46:39;19.45;;;8.90;;
84084;SDS011;74175;41.730;44.734;2024-02-26T10:49:08;9.27;;;4.38;;
84084;SDS011;74175;41.730;44.734;2024-02-26T10:51:39;8.97;;;4.20;;
84084;SDS011;74175;41.730;44.734;2024-02-26T10:54:07;7.72;;;3.05;;
84084;SDS011;74175;41.730;44.734;2024-02-26T10:56:36;7.57;;;3.70;;
84084;SDS011;74175;41.730;44.734;2024-02-26T10:59:05;9.60;;;4.00;;
84084;SDS011;74175;41.730;44.734;2024-02-26T11:01:33;8.60;;;3.47;;
84084;SDS011;74175;41.730;44.734;2024-02-26T11:04:02;9.43;;;4.05;;
84084;SDS011;74175;41.730;44.734;2024-02-26T11:06:29;10.00;;;3.97;;
84084;SDS011;74175;41.730;44.734;2024-02-26T11:08:55;10.73;;;4.43;;
84084;SDS011;74175;41.730;44.734;2024-02-26T11:11:22;10.03;;;3.87;;
84084;SDS011;74175;41.730;44.734;2024-02-26T11:13:48;9.50;;;3.70;;
84084;SDS011;74175;41.730;44.734;2024-02-26T11:16:17;8.25;;;3.45;;
84084;SDS011;74175;41.730;44.734;2024-02-26T11:18:46;8.27;;;3.22;;
84084;SDS011;74175;41.730;44.734;2024-02-26T11:21:16;8.23;;;3.53;;
84084;SDS011;74175;41.730;44.734;2024-02-26T11:23:44;7.32;;;3.10;;
84084;SDS011;74175;41.730;44.734;2024-02-26T11:26:14;8.93;;;3.50;;
84084;SDS011;74175;41.730;44.734;2024-02-26T11:28:41;10.13;;;4.17;;
84084;SDS011;74175;41.730;44.734;2024-02-26T11:31:12;10.18;;;4.20;;
84084;SDS011;74175;41.730;44.734;2024-02-26T11:33:39;9.10;;;3.47;;
84084;SDS011;74175;41.730;44.734;2024-02-26T11:36:09;9.55;;;3.45;;
84084;SDS011;74175;41.730;44.734;2024-02-26T11:38:38;10.68;;;4.35;;
84084;SDS011;74175;41.730;44.734;2024-02-26T11:41:09;8.35;;;3.67;;
84084;SDS011;74175;41.730;44.734;2024-02-26T11:43:57;10.57;;;4.38;;
84084;SDS011;74175;41.730;44.734;2024-02-26T11:46:33;9.32;;;3.92;;
84084;SDS011;74175;41.730;44.734;2024-02-26T11:51:51;8.83;;;4.07;;
84084;SDS011;74175;41.730;44.734;2024-02-26T11:54:39;7.03;;;2.90;;
84084;SDS011;74175;41.730;44.734;2024-02-26T12:00:14;9.30;;;4.18;;
84084;SDS011;74175;41.730;44.734;2024-02-26T12:07:44;7.40;;;2.78;;
84084;SDS011;74175;41.730;44.734;2024-02-26T12:15:23;9.03;;;3.07;;
84084;SDS011;74175;41.730;44.734;2024-02-26T12:17:49;9.88;;;4.13;;
84084;SDS011;74175;41.730;44.734;2024-02-26T12:20:17;8.85;;;3.60;;
84084;SDS011;74175;41.730;44.734;2024-02-26T12:22:46;7.40;;;2.85;;
84084;SDS011;74175;41.730;44.734;2024-02-26T12:25:15;7.45;;;3.03;;
84084;SDS011;74175;41.730;44.734;2024-02-26T12:27:41;7.40;;;2.75;;
84084;SDS011;74175;41.730;44.734;2024-02-26T12:30:08;7.40;;;2.50;;
84084;SDS011;74175;41.730;44.734;2024-02-26T12:32:36;9.90;;;3.43;;
84084;SDS011;74175;41.730;44.734;2024-02-26T12:35:02;11.38;;;3.58;;
84084;SDS011;74175;41.730;44.734;2024-02-26T12:37:30;9.10;;;3.10;;
84084;SDS011;74175;41.730;44.734;2024-02-26T12:39:56;5.90;;;2.30;;
84084;SDS011;74175;41.730;44.734;2024-02-26T12:42:22;7.13;;;2.97;;
84084;SDS011;74175;41.730;44.734;2024-02-26T12:44:49;8.27;;;2.50;;
84084;SDS011;74175;41.730;44.734;2024-02-26T12:47:17;7.30;;;2.90;;
84084;SDS011;74175;41.730;44.734;2024-02-26T12:49:46;8.00;;;3.10;;
84084;SDS011;74175;41.730;44.734;2024-02-26T12:52:14;8.10;;;3.63;;
84084;SDS011;74175;41.730;44.734;2024-02-26T12:54:40;7.28;;;2.72;;
84084;SDS011;74175;41.730;44.734;2024-02-26T12:57:08;8.23;;;3.22;;
84084;SDS011;74175;41.730;44.734;2024-02-26T12:59:34;10.80;;;3.80;;
84084;SDS011;74175;41.730;44.734;2024-02-26T13:02:02;9.23;;;3.20;;
84084;SDS011;74175;41.730;44.734;2024-02-26T13:04:29;10.43;;;3.03;;
84084;SDS011;74175;41.730;44.734;2024-02-26T13:06:56;7.32;;;3.05;;
84084;SDS011;74175;41.730;44.734;2024-02-26T13:09:28;6.65;;;2.80;;
84084;SDS011;74175;41.730;44.734;2024-02-26T13:11:58;6.43;;;2.20;;
84084;SDS011;74175;41.730;44.734;2024-02-26T13:14:26;6.70;;;2.15;;
84084;SDS011;74175;41.730;44.734;2024-02-26T13:16:55;5.82;;;2.00;;
84084;SDS011;74175;41.730;44.734;2024-02-26T13:19:22;7.95;;;2.20;;
84084;SDS011;74175;41.730;44.734;2024-02-26T13:21:50;8.40;;;2.70;;
84084;SDS011;74175;41.730;44.734;2024-02-26T13:24:16;8.00;;;2.90;;
84084;SDS011;74175;41.730;44.734;2024-02-26T13:26:43;7.18;;;2.85;;
84084;SDS011;74175;41.730;44.734;2024-02-26T13:29:16;6.40;;;2.40;;
84084;SDS011;74175;41.730;44.734;2024-02-26T13:31:42;6.77;;;2.10;;
84084;SDS011;74175;41.730;44.734;2024-02-26T13:34:08;6.93;;;2.58;;
84084;SDS011;74175;41.730;44.734;2024-02-26T13:36:34;5.68;;;2.40;;
84084;SDS011;74175;41.730;44.734;2024-02-26T13:39:01;7.15;;;2.35;;
84084;SDS011;74175;41.730;44.734;2024-02-26T13:41:30;6.05;;;1.90;;
84084;SDS011;74175;41.730;44.734;2024-02-26T13:43:56;5.60;;;2.30;;
84084;SDS011;74175;41.730;44.734;2024-02-26T13:46:23;8.90;;;2.97;;
84084;SDS011;74175;41.730;44.734;2024-02-26T13:48:50;5.70;;;1.90;;
84084;SDS011;74175;41.730;44.734;2024-02-26T13:51:16;5.05;;;1.80;;
84084;SDS011;74175;41.730;44.734;2024-02-26T13:53:43;4.65;;;1.75;;
84084;SDS011;74175;41.730;44.734;2024-02-26T13:56:09;7.40;;;2.38;;
84084;SDS011;74175;41.730;44.734;2024-02-26T13:58:35;7.78;;;2.65;;
84084;SDS011;74175;41.730;44.734;2024-02-26T14:01:02;5.53;;;1.85;;
84084;SDS011;74175;41.730;44.734;2024-02-26T14:03:29;6.03;;;2.17;;
84084;SDS011;74175;41.730;44.734;2024-02-26T14:05:55;6.63;;;1.98;;
84084;SDS011;74175;41.730;44.734;2024-02-26T14:08:22;5.90;;;2.00;;
84084;SDS011;74175;41.730;44.734;2024-02-26T14:10:48;5.40;;;1.83;;
84084;SDS011;74175;41.730;44.734;2024-02-26T14:13:14;5.60;;;1.90;;
84084;SDS011;74175;41.730;44.734;2024-02-26T14:15:41;6.80;;;1.88;;
84084;SDS011;74175;41.730;44.734;2024-02-26T14:18:07;6.80;;;2.60;;
84084;SDS011;74175;41.730;44.734;2024-02-26T14:20:34;8.48;;;2.63;;
84084;SDS011;74175;41.730;44.734;2024-02-26T14:23:00;7.72;;;2.45;;
84084;SDS011;74175;41.730;44.734;2024-02-26T14:25:26;6.82;;;2.85;;
84084;SDS011;74175;41.730;44.734;2024-02-26T14:27:52;9.88;;;2.70;;
84084;SDS011;74175;41.730;44.734;2024-02-26T14:30:18;6.88;;;2.70;;
84084;SDS011;74175;41.730;44.734;2024-02-26T14:32:44;7.93;;;2.70;;
84084;SDS011;74175;41.730;44.734;2024-02-26T14:35:11;6.63;;;2.55;;
84084;SDS011;74175;41.730;44.734;2024-02-26T14:37:39;6.80;;;2.33;;
84084;SDS011;74175;41.730;44.734;2024-02-26T14:40:05;7.32;;;2.45;;
84084;SDS011;74175;41.730;44.734;2024-02-26T14:42:32;7.22;;;2.60;;
84084;SDS011;74175;41.730;44.734;2024-02-26T14:44:59;6.27;;;2.37;;
84084;SDS011;74175;41.730;44.734;2024-02-26T14:47:25;7.18;;;2.60;;
84084;SDS011;74175;41.730;44.734;2024-02-26T14:49:52;6.38;;;2.67;;
84084;SDS011;74175;41.730;44.734;2024-02-26T14:52:18;7.32;;;2.45;;
84084;SDS011;74175;41.730;44.734;2024-02-26T14:54:44;7.07;;;2.10;;
84084;SDS011;74175;41.730;44.734;2024-02-26T14:57:11;7.05;;;2.60;;
84084;SDS011;74175;41.730;44.734;2024-02-26T14:59:37;5.82;;;2.20;;
84084;SDS011;74175;41.730;44.734;2024-02-26T15:02:04;6.13;;;2.00;;
84084;SDS011;74175;41.730;44.734;2024-02-26T15:04:30;6.15;;;2.10;;
84084;SDS011;74175;41.730;44.734;2024-02-26T15:06:56;6.73;;;1.80;;
84084;SDS011;74175;41.730;44.734;2024-02-26T15:09:23;6.33;;;2.30;;
84084;SDS011;74175;41.730;44.734;2024-02-26T15:11:50;6.25;;;2.05;;
84084;SDS011;74175;41.730;44.734;2024-02-26T15:14:16;4.53;;;1.50;;
84084;SDS011;74175;41.730;44.734;2024-02-26T15:16:43;6.82;;;2.20;;
84084;SDS011;74175;41.730;44.734;2024-02-26T15:19:10;5.75;;;1.95;;
84084;SDS011;74175;41.730;44.734;2024-02-26T15:21:43;6.65;;;2.38;;
84084;SDS011;74175;41.730;44.734;2024-02-26T15:24:10;7.13;;;2.20;;